Time;durP1;ratioP1;P1;durP2;ratioP2;P2;SDS_P1;SDS_P2;PMS_P1;PMS_P2;Temp;Humidity;BMP_temperature;BMP_pressure;BME280_temperature;BME280_humidity;BME280_pressure;Samples;Min_cycle;Max_cycle;Signal;HPM_P1;HPM_P2
2023/07/31 00:00:13;;;;;;;1.13;1.02;;;16.70;93.60;;;;;;5069391;28;20067;-69
2023/07/31 00:02:38;;;;;;;1.08;0.98;;;16.70;93.80;;;;;;5069263;28;20027;-70
2023/07/31 00:05:05;;;;;;;1.00;0.80;;;16.70;93.80;;;;;;5069132;28;20087;-69
2023/07/31 00:07:32;;;;;;;1.30;0.75;;;16.80;93.70;;;;;;5068905;28;20025;-69
2023/07/31 00:09:57;;;;;;;0.95;0.90;;;16.80;93.70;;;;;;5069188;28;20141;-69
2023/07/31 00:12:23;;;;;;;0.90;0.90;;;16.80;93.70;;;;;;5068950;28;20033;-69
2023/07/31 00:14:49;;;;;;;1.33;1.23;;;16.80;93.70;;;;;;5069376;28;20027;-69
2023/07/31 00:17:16;;;;;;;0.90;0.90;;;16.80;94.10;;;;;;5068903;28;20433;-68
2023/07/31 00:19:42;;;;;;;1.40;1.30;;;16.80;93.80;;;;;;5068970;28;20025;-68
2023/07/31 00:22:07;;;;;;;1.30;1.20;;;16.80;93.80;;;;;;5071120;28;20020;-69
2023/07/31 00:24:33;;;;;;;1.60;1.50;;;16.80;93.90;;;;;;5072574;28;20033;-68
2023/07/31 00:26:58;;;;;;;1.85;1.70;;;16.80;94.00;;;;;;5072660;28;20017;-68
2023/07/31 00:29:24;;;;;;;1.20;1.10;;;16.70;94.10;;;;;;5072337;28;20503;-68
2023/07/31 00:31:49;;;;;;;1.50;1.40;;;16.70;94.20;;;;;;5072605;28;20032;-68
2023/07/31 00:34:15;;;;;;;2.35;1.52;;;16.80;94.20;;;;;;5072227;28;20052;-68
2023/07/31 00:36:40;;;;;;;1.38;1.27;;;16.70;94.40;;;;;;5072640;28;20391;-68
2023/07/31 00:39:06;;;;;;;1.63;1.52;;;16.70;94.50;;;;;;5072495;28;20095;-68
2023/07/31 00:41:32;;;;;;;1.60;1.50;;;16.70;94.60;;;;;;5072873;28;20243;-69
2023/07/31 00:43:57;;;;;;;2.08;1.70;;;16.70;94.70;;;;;;5072429;28;20024;-68
2023/07/31 00:46:23;;;;;;;1.90;1.75;;;16.80;94.70;;;;;;5072346;28;20099;-69
2023/07/31 00:48:49;;;;;;;2.25;1.75;;;16.90;94.70;;;;;;5087918;28;20548;-69
2023/07/31 00:51:15;;;;;;;5.40;2.95;;;16.90;94.60;;;;;;5072352;28;20031;-69
2023/07/31 00:53:41;;;;;;;4.07;2.30;;;16.90;94.70;;;;;;5072118;28;20578;-69
2023/07/31 00:56:07;;;;;;;5.40;2.35;;;17.00;94.70;;;;;;5072406;28;20487;-69
2023/07/31 00:58:33;;;;;;;6.60;3.08;;;17.00;94.70;;;;;;5072567;28;20356;-69
2023/07/31 01:00:58;;;;;;;7.40;3.78;;;17.00;94.70;;;;;;5054708;28;20471;-69
2023/07/31 01:03:24;;;;;;;7.07;4.03;;;17.10;94.90;;;;;;5072753;28;20025;-69
2023/07/31 01:06:14;;;;;;;8.65;4.18;;;17.10;94.90;;;;;;5072182;28;20025;-69
2023/07/31 01:09:02;;;;;;;10.93;4.35;;;17.20;94.90;;;;;;5072653;28;20427;-69
2023/07/31 01:11:38;;;;;;;10.45;4.93;;;17.20;95.20;;;;;;5072165;28;20047;-69
2023/07/31 01:14:04;;;;;;;11.90;4.78;;;17.30;94.90;;;;;;5054064;28;20024;-69
2023/07/31 01:16:30;;;;;;;14.27;6.22;;;17.30;95.00;;;;;;5071571;28;20035;-69
2023/07/31 01:18:55;;;;;;;12.20;6.15;;;17.30;95.00;;;;;;5071765;28;20483;-69
2023/07/31 01:21:36;;;;;;;12.95;5.82;;;17.40;95.00;;;;;;5053623;28;20384;-69
2023/07/31 01:24:17;;;;;;;15.13;7.00;;;17.50;95.20;;;;;;5071647;28;20104;-69
2023/07/31 01:26:47;;;;;;;16.55;7.60;;;17.50;95.20;;;;;;5071542;28;20024;-69
2023/07/31 01:29:42;;;;;;;20.35;7.85;;;17.50;95.30;;;;;;5053782;28;20055;-69
2023/07/31 01:32:10;;;;;;;16.83;7.18;;;17.60;95.40;;;;;;5035404;28;20047;-69
2023/07/31 01:34:37;;;;;;;21.45;8.85;;;17.60;95.50;;;;;;5050488;28;20025;-69
2023/07/31 01:37:02;;;;;;;21.77;9.27;;;17.60;95.50;;;;;;5051256;28;20074;-69
2023/07/31 01:39:28;;;;;;;20.40;8.32;;;17.60;95.50;;;;;;5051519;28;20056;-69
2023/07/31 01:41:54;;;;;;;20.17;8.20;;;17.60;95.60;;;;;;5051621;28;20021;-69
2023/07/31 01:44:20;;;;;;;15.23;7.10;;;17.60;95.60;;;;;;5051324;28;20479;-69
2023/07/31 01:46:45;;;;;;;17.73;7.90;;;17.70;95.70;;;;;;5051289;28;20024;-69
2023/07/31 01:49:11;;;;;;;15.93;7.47;;;17.60;95.70;;;;;;5051550;28;20033;-69
2023/07/31 01:51:36;;;;;;;16.50;7.32;;;17.60;95.60;;;;;;5051032;28;20021;-69
2023/07/31 01:54:02;;;;;;;13.68;6.80;;;17.60;95.60;;;;;;5051512;28;20362;-69
2023/07/31 01:56:28;;;;;;;18.67;7.30;;;17.70;95.70;;;;;;5050794;28;20021;-69
2023/07/31 01:58:54;;;;;;;15.10;7.00;;;17.70;95.60;;;;;;5050927;28;20088;-69
2023/07/31 02:01:20;;;;;;;15.77;6.90;;;17.70;95.60;;;;;;5050856;28;20028;-69
2023/07/31 02:03:45;;;;;;;14.73;6.85;;;17.70;95.50;;;;;;5051173;28;20050;-69
2023/07/31 02:06:11;;;;;;;14.93;7.00;;;17.80;95.50;;;;;;5050698;28;20119;-69
2023/07/31 02:08:36;;;;;;;16.75;6.88;;;17.70;95.40;;;;;;5050439;28;20098;-69
2023/07/31 02:11:02;;;;;;;14.90;7.22;;;17.70;95.40;;;;;;5050751;28;20036;-69
2023/07/31 02:13:28;;;;;;;13.80;6.78;;;17.70;95.50;;;;;;5050888;28;20027;-69
2023/07/31 02:15:54;;;;;;;17.63;7.47;;;17.70;95.50;;;;;;5032911;28;20355;-68
2023/07/31 02:18:19;;;;;;;15.50;7.30;;;17.60;95.60;;;;;;5050855;28;20017;-69
2023/07/31 02:20:49;;;;;;;16.17;7.00;;;17.60;95.60;;;;;;5050680;28;20068;-68
2023/07/31 02:23:15;;;;;;;14.27;6.40;;;17.60;95.60;;;;;;5050234;28;20014;-68
2023/07/31 02:25:40;;;;;;;13.02;6.47;;;17.60;95.60;;;;;;5050436;28;20025;-68
2023/07/31 02:28:06;;;;;;;13.43;6.43;;;17.60;95.70;;;;;;5050263;28;20029;-69
2023/07/31 02:30:31;;;;;;;11.07;6.45;;;17.60;95.60;;;;;;5050281;28;20029;-69
2023/07/31 02:32:57;;;;;;;13.35;6.57;;;17.60;95.70;;;;;;5050492;28;20029;-69
2023/07/31 02:35:23;;;;;;;14.50;6.13;;;17.60;95.80;;;;;;5049908;28;20021;-69
2023/07/31 02:37:48;;;;;;;12.45;5.70;;;17.60;95.90;;;;;;5049199;28;20071;-69
2023/07/31 02:40:14;;;;;;;9.77;5.00;;;17.50;95.90;;;;;;5049588;28;20100;-69
2023/07/31 02:42:39;;;;;;;9.75;5.07;;;17.50;95.90;;;;;;5050014;28;20045;-69
2023/07/31 02:45:06;;;;;;;7.43;4.55;;;17.50;95.90;;;;;;5049489;28;20029;-70
2023/07/31 02:47:31;;;;;;;7.38;3.97;;;17.50;95.80;;;;;;5032076;28;20040;-68
2023/07/31 02:49:57;;;;;;;8.45;4.80;;;17.60;95.80;;;;;;5049996;28;20033;-69
2023/07/31 02:52:23;;;;;;;10.27;4.65;;;17.60;95.80;;;;;;5050244;28;20108;-68
2023/07/31 02:54:48;;;;;;;10.88;4.82;;;17.60;95.90;;;;;;5049763;28;20166;-68
2023/07/31 02:57:14;;;;;;;10.55;4.95;;;17.60;95.90;;;;;;5049975;28;20021;-68
2023/07/31 02:59:40;;;;;;;10.20;4.97;;;17.60;95.90;;;;;;5049932;28;20017;-68
2023/07/31 03:02:05;;;;;;;10.25;5.00;;;17.60;95.90;;;;;;5049968;28;20029;-68
2023/07/31 03:04:31;;;;;;;13.50;5.90;;;17.60;95.80;;;;;;5049816;28;20017;-68
2023/07/31 03:06:56;;;;;;;13.60;6.22;;;17.60;95.90;;;;;;5049923;28;20063;-69
2023/07/31 03:09:22;;;;;;;15.55;5.82;;;17.60;95.90;;;;;;5050026;28;20506;-69
2023/07/31 03:11:47;;;;;;;14.77;6.28;;;17.60;95.90;;;;;;5049824;28;20391;-69
2023/07/31 03:14:13;;;;;;;14.20;5.95;;;17.60;95.80;;;;;;5049763;28;20014;-69
2023/07/31 03:16:38;;;;;;;15.48;6.90;;;17.60;96.00;;;;;;5049627;28;20273;-69
2023/07/31 03:19:04;;;;;;;18.42;6.75;;;17.60;95.70;;;;;;5048591;28;20083;-69
2023/07/31 03:21:30;;;;;;;14.13;5.75;;;17.60;95.70;;;;;;5042434;28;20429;-69
2023/07/31 03:23:55;;;;;;;12.13;5.47;;;17.60;95.60;;;;;;5046355;28;20071;-69
2023/07/31 03:26:21;;;;;;;15.40;6.78;;;17.60;95.60;;;;;;5047128;28;20470;-69
2023/07/31 03:28:47;;;;;;;14.25;6.20;;;17.60;95.50;;;;;;5049182;28;20443;-69
2023/07/31 03:31:12;;;;;;;16.00;6.53;;;17.60;95.50;;;;;;5049550;28;20128;-69
2023/07/31 03:33:38;;;;;;;14.40;6.35;;;17.60;95.40;;;;;;5049550;28;20392;-69
2023/07/31 03:36:04;;;;;;;13.20;5.55;;;17.70;95.30;;;;;;5039564;28;20032;-69
2023/07/31 03:38:30;;;;;;;12.15;6.15;;;17.60;95.20;;;;;;5011365;28;20017;-69
2023/07/31 03:40:55;;;;;;;13.50;6.03;;;17.60;95.40;;;;;;5029787;28;20036;-69
2023/07/31 03:43:21;;;;;;;11.93;5.60;;;17.60;95.10;;;;;;5029507;28;20017;-69
2023/07/31 03:45:46;;;;;;;11.25;5.43;;;17.60;95.00;;;;;;5028895;28;20030;-69
2023/07/31 03:48:13;;;;;;;14.02;6.88;;;17.60;95.00;;;;;;5029155;28;20044;-69
2023/07/31 03:50:39;;;;;;;13.65;6.00;;;17.60;94.90;;;;;;5029709;28;20017;-69
2023/07/31 03:53:04;;;;;;;14.93;5.70;;;17.60;94.80;;;;;;5029474;28;20033;-69
2023/07/31 03:55:30;;;;;;;13.80;6.07;;;17.60;94.80;;;;;;5029574;28;20021;-69
2023/07/31 03:57:55;;;;;;;14.80;6.57;;;17.60;94.70;;;;;;5032916;28;20030;-69
2023/07/31 04:00:22;;;;;;;15.35;6.35;;;17.60;94.70;;;;;;5033343;28;20022;-69
2023/07/31 04:02:47;;;;;;;16.42;5.50;;;17.50;94.60;;;;;;5033652;28;20026;-69
2023/07/31 04:05:13;;;;;;;10.95;5.20;;;17.60;94.60;;;;;;5032984;28;20559;-69
2023/07/31 04:07:38;;;;;;;11.90;6.28;;;17.50;94.50;;;;;;5033205;28;20504;-69
2023/07/31 04:10:04;;;;;;;13.43;6.10;;;17.50;94.50;;;;;;5033539;28;20401;-69
2023/07/31 04:12:30;;;;;;;13.60;5.95;;;17.50;94.50;;;;;;5033135;28;20034;-69
2023/07/31 04:14:55;;;;;;;14.02;6.18;;;17.50;94.40;;;;;;5032642;28;20035;-69
2023/07/31 04:17:21;;;;;;;16.98;6.60;;;17.50;94.40;;;;;;5032885;28;20029;-69
2023/07/31 04:19:46;;;;;;;15.55;6.43;;;17.50;94.30;;;;;;5032657;28;20651;-69
2023/07/31 04:22:12;;;;;;;11.95;5.55;;;17.50;94.20;;;;;;5033181;28;20029;-69
2023/07/31 04:24:37;;;;;;;17.02;6.45;;;17.50;94.20;;;;;;5032598;28;20412;-69
2023/07/31 04:27:03;;;;;;;13.52;5.60;;;17.50;94.10;;;;;;5032657;28;20434;-69
2023/07/31 04:29:29;;;;;;;10.80;5.60;;;17.50;94.10;;;;;;5032728;28;20037;-69
2023/07/31 04:31:54;;;;;;;14.70;5.57;;;17.50;94.10;;;;;;5032800;28;20052;-69
2023/07/31 04:34:20;;;;;;;15.88;6.03;;;17.50;94.00;;;;;;5032471;28;20022;-69
2023/07/31 04:36:45;;;;;;;15.20;5.63;;;17.50;93.90;;;;;;5014739;28;20029;-69
2023/07/31 04:39:11;;;;;;;13.18;5.45;;;17.50;93.90;;;;;;5032628;28;20025;-69
2023/07/31 04:41:36;;;;;;;13.77;5.70;;;17.50;93.90;;;;;;5032794;28;20203;-69
2023/07/31 04:44:03;;;;;;;15.68;6.57;;;17.50;93.80;;;;;;5032340;28;20021;-69
2023/07/31 04:46:29;;;;;;;12.68;5.75;;;17.50;93.90;;;;;;5032314;28;20567;-69
2023/07/31 04:48:55;;;;;;;10.50;5.35;;;17.50;93.80;;;;;;5032316;28;20120;-69
2023/07/31 04:51:21;;;;;;;14.98;5.25;;;17.50;93.80;;;;;;5032155;28;20025;-69
2023/07/31 04:53:46;;;;;;;12.15;5.05;;;17.60;93.70;;;;;;5032308;28;20536;-69
2023/07/31 04:56:12;;;;;;;12.75;5.70;;;17.60;93.60;;;;;;5031963;28;20021;-69
2023/07/31 04:58:38;;;;;;;16.75;5.97;;;17.60;93.60;;;;;;5032191;28;20037;-69
2023/07/31 05:01:03;;;;;;;12.43;5.40;;;17.60;93.50;;;;;;5032216;28;20526;-70
2023/07/31 05:03:29;;;;;;;10.75;4.63;;;17.60;93.50;;;;;;5032164;28;20060;-70
2023/07/31 05:05:54;;;;;;;13.57;5.22;;;17.60;93.50;;;;;;5032084;28;20442;-69
2023/07/31 05:08:20;;;;;;;10.30;5.25;;;17.60;93.40;;;;;;5031817;28;20053;-69
2023/07/31 05:10:46;;;;;;;13.82;5.97;;;17.60;93.40;;;;;;5014315;28;20067;-69
2023/07/31 05:13:11;;;;;;;14.10;6.10;;;17.60;93.40;;;;;;5031751;28;20029;-69
2023/07/31 05:15:37;;;;;;;10.95;5.82;;;17.60;93.30;;;;;;5031929;28;20081;-69
2023/07/31 05:18:02;;;;;;;11.57;5.18;;;17.60;93.30;;;;;;5031999;28;20519;-69
2023/07/31 05:20:28;;;;;;;11.35;5.00;;;17.50;93.30;;;;;;5032235;28;20033;-69
2023/07/31 05:22:53;;;;;;;12.10;6.13;;;17.60;93.40;;;;;;5013815;28;20028;-69
2023/07/31 05:25:19;;;;;;;14.05;5.20;;;17.50;93.40;;;;;;5013914;28;20029;-69
2023/07/31 05:27:45;;;;;;;10.70;5.20;;;17.50;93.50;;;;;;5031573;28;20021;-69
2023/07/31 05:30:10;;;;;;;12.32;5.60;;;17.50;93.50;;;;;;5031741;28;20513;-69
2023/07/31 05:32:36;;;;;;;13.30;5.40;;;17.60;93.60;;;;;;5031561;28;20136;-69
2023/07/31 05:35:01;;;;;;;11.52;6.07;;;17.50;93.60;;;;;;5031487;28;20032;-69
2023/07/31 05:37:27;;;;;;;15.88;5.53;;;17.50;93.60;;;;;;5031435;28;20087;-69
2023/07/31 05:39:53;;;;;;;13.55;6.18;;;17.50;93.70;;;;;;5031427;28;20021;-69
2023/07/31 05:42:18;;;;;;;10.98;5.25;;;17.40;93.80;;;;;;5031967;28;20018;-69
2023/07/31 05:44:44;;;;;;;9.65;4.90;;;17.40;93.90;;;;;;5031613;28;20105;-69
2023/07/31 05:47:09;;;;;;;11.88;5.75;;;17.40;94.00;;;;;;5013351;28;20057;-68
2023/07/31 05:49:35;;;;;;;9.40;5.20;;;17.40;94.00;;;;;;5031305;28;20056;-68
2023/07/31 05:52:01;;;;;;;11.07;5.40;;;17.40;94.20;;;;;;5031569;28;20066;-68
2023/07/31 05:54:26;;;;;;;9.85;4.88;;;17.30;94.30;;;;;;5030985;28;20038;-69
2023/07/31 05:56:52;;;;;;;9.65;4.50;;;17.30;94.40;;;;;;5031296;28;20048;-69
2023/07/31 05:59:17;;;;;;;10.75;5.53;;;17.30;94.50;;;;;;5030937;28;20228;-69
2023/07/31 06:01:43;;;;;;;7.40;3.83;;;17.30;94.60;;;;;;5031064;28;20497;-69
2023/07/31 06:04:09;;;;;;;7.15;3.92;;;17.30;94.60;;;;;;5030984;28;20029;-69
2023/07/31 06:06:34;;;;;;;9.30;4.93;;;17.30;94.70;;;;;;5031142;28;20018;-70
2023/07/31 06:09:00;;;;;;;12.07;5.60;;;17.30;94.80;;;;;;5031423;28;20064;-69
2023/07/31 06:11:26;;;;;;;7.80;4.47;;;17.30;95.00;;;;;;5031532;28;20033;-69
2023/07/31 06:13:51;;;;;;;7.75;4.28;;;17.30;95.10;;;;;;5030816;28;20079;-69
2023/07/31 06:16:17;;;;;;;10.88;4.93;;;17.30;95.10;;;;;;5030860;28;20033;-69
2023/07/31 06:18:43;;;;;;;9.30;5.15;;;17.30;95.30;;;;;;5030105;28;20040;-69
2023/07/31 06:21:10;;;;;;;11.70;5.47;;;17.30;95.40;;;;;;5030841;28;20104;-69
2023/07/31 06:23:35;;;;;;;10.05;4.70;;;17.30;95.50;;;;;;5030770;28;20025;-68
2023/07/31 06:26:01;;;;;;;9.82;4.60;;;17.30;95.60;;;;;;5030373;28;20028;-69
2023/07/31 06:28:31;;;;;;;10.27;4.13;;;17.40;95.70;;;;;;5030472;28;20025;-69
2023/07/31 06:30:57;;;;;;;9.45;4.95;;;17.30;95.80;;;;;;5030421;28;20120;-68
2023/07/31 06:33:23;;;;;;;8.57;4.53;;;17.30;95.90;;;;;;5030536;28;20025;-69
2023/07/31 06:35:48;;;;;;;10.35;5.40;;;17.40;96.00;;;;;;5030245;28;20084;-68
2023/07/31 06:38:14;;;;;;;8.50;4.63;;;17.40;96.10;;;;;;5030306;28;20025;-68
2023/07/31 06:40:39;;;;;;;11.50;4.88;;;17.40;96.20;;;;;;5030176;28;20022;-68
2023/07/31 06:43:08;;;;;;;7.22;4.07;;;17.40;96.30;;;;;;5012708;28;20025;-68
2023/07/31 06:45:35;;;;;;;9.27;4.68;;;17.40;96.40;;;;;;5030370;28;20056;-68
2023/07/31 06:48:01;;;;;;;6.72;4.40;;;17.40;96.40;;;;;;5030359;28;20033;-68
2023/07/31 06:50:28;;;;;;;10.38;4.95;;;17.50;96.50;;;;;;5030255;28;20052;-68
2023/07/31 06:52:54;;;;;;;6.72;3.92;;;17.40;96.70;;;;;;5030145;28;20024;-68
2023/07/31 06:55:21;;;;;;;8.07;4.10;;;17.40;96.70;;;;;;5012388;28;20022;-68
2023/07/31 06:57:49;;;;;;;6.93;3.70;;;17.50;96.80;;;;;;5029970;28;20125;-68
2023/07/31 07:00:15;;;;;;;5.82;3.58;;;17.50;96.80;;;;;;5030400;28;20025;-68
2023/07/31 07:02:41;;;;;;;7.47;4.00;;;17.50;96.80;;;;;;5030321;28;20029;-68
2023/07/31 07:05:08;;;;;;;4.43;2.95;;;17.60;96.80;;;;;;5030158;28;20029;-68
2023/07/31 07:07:33;;;;;;;5.05;3.20;;;17.60;96.80;;;;;;5029963;28;20109;-68
2023/07/31 07:10:03;;;;;;;5.90;3.22;;;17.60;96.80;;;;;;5029947;28;20105;-69
2023/07/31 07:12:33;;;;;;;5.88;3.28;;;17.60;96.80;;;;;;5012267;28;20159;-69
2023/07/31 07:14:59;;;;;;;4.70;2.45;;;17.60;96.90;;;;;;5012195;28;21996;-69
2023/07/31 07:17:26;;;;;;;3.80;2.30;;;17.60;96.90;;;;;;5030007;28;20029;-68
2023/07/31 07:19:52;;;;;;;4.50;2.42;;;17.60;97.00;;;;;;5030290;28;20026;-68
2023/07/31 07:22:17;;;;;;;3.95;2.10;;;17.70;97.00;;;;;;5029949;28;20087;-69
2023/07/31 07:24:43;;;;;;;4.00;2.30;;;17.70;97.10;;;;;;5029679;28;20017;-68
2023/07/31 07:27:09;;;;;;;3.13;2.20;;;17.70;97.10;;;;;;5030165;28;20052;-68
2023/07/31 07:29:35;;;;;;;3.67;2.30;;;17.90;97.10;;;;;;5029670;28;20026;-68
2023/07/31 07:32:00;;;;;;;2.25;1.58;;;17.90;97.00;;;;;;5032424;28;20060;-69
2023/07/31 07:34:27;;;;;;;2.13;1.60;;;17.90;96.90;;;;;;5033719;28;20018;-69
2023/07/31 07:36:54;;;;;;;2.72;1.65;;;17.90;96.90;;;;;;5033672;28;20462;-69
2023/07/31 07:39:20;;;;;;;2.50;1.60;;;17.90;96.90;;;;;;5015852;28;20550;-69
2023/07/31 07:41:46;;;;;;;2.28;1.48;;;17.90;97.00;;;;;;5033874;28;20021;-69
2023/07/31 07:44:12;;;;;;;1.92;1.33;;;17.90;96.90;;;;;;5033607;28;20017;-69
2023/07/31 07:46:38;;;;;;;1.60;1.40;;;17.90;96.90;;;;;;5033852;28;20570;-68
2023/07/31 07:49:03;;;;;;;2.08;1.48;;;17.90;96.90;;;;;;5033732;28;20026;-69
2023/07/31 07:51:31;;;;;;;1.40;1.30;;;17.90;97.00;;;;;;5033743;28;20049;-69
2023/07/31 07:53:57;;;;;;;1.75;1.50;;;17.90;97.10;;;;;;5033567;28;20033;-68
2023/07/31 07:56:24;;;;;;;1.40;1.23;;;17.90;97.10;;;;;;5033556;28;20029;-68
2023/07/31 07:58:50;;;;;;;1.50;1.35;;;17.90;97.20;;;;;;5033558;28;20021;-68
2023/07/31 08:01:16;;;;;;;1.70;1.40;;;17.90;97.20;;;;;;5033662;28;20033;-68
2023/07/31 08:03:42;;;;;;;1.42;1.30;;;17.90;97.20;;;;;;5033737;28;20447;-68
2023/07/31 08:06:09;;;;;;;1.48;1.30;;;18.00;97.20;;;;;;5032996;28;20060;-68
2023/07/31 08:08:35;;;;;;;2.65;1.35;;;17.90;97.20;;;;;;5033510;28;20200;-69
2023/07/31 08:11:01;;;;;;;1.60;1.45;;;18.00;97.20;;;;;;5033359;28;20017;-69
2023/07/31 08:13:26;;;;;;;1.50;1.40;;;17.90;97.30;;;;;;5015518;28;20044;-69
2023/07/31 08:15:52;;;;;;;1.88;1.60;;;18.00;97.30;;;;;;5033168;28;20408;-69
2023/07/31 08:18:18;;;;;;;2.00;1.80;;;18.00;97.30;;;;;;5033543;28;20492;-69
2023/07/31 08:20:43;;;;;;;1.42;1.33;;;18.00;97.40;;;;;;5032732;28;20488;-69
2023/07/31 08:23:09;;;;;;;1.55;1.40;;;18.00;97.50;;;;;;5033119;28;20096;-68
2023/07/31 08:25:38;;;;;;;2.05;1.52;;;18.00;97.40;;;;;;5032898;28;20026;-69
2023/07/31 08:28:04;;;;;;;1.80;1.58;;;18.10;97.40;;;;;;5032975;28;20028;-69
2023/07/31 08:30:30;;;;;;;1.77;1.60;;;18.10;97.40;;;;;;5033194;28;20175;-69
2023/07/31 08:32:56;;;;;;;2.05;1.60;;;18.10;97.40;;;;;;5033866;28;20121;-69
2023/07/31 08:35:21;;;;;;;1.70;1.60;;;18.10;97.30;;;;;;5032864;28;20491;-68
2023/07/31 08:37:47;;;;;;;2.50;2.20;;;18.20;97.40;;;;;;5032687;28;20035;-68
2023/07/31 08:40:13;;;;;;;2.50;2.20;;;18.20;97.40;;;;;;5033116;28;20021;-68
2023/07/31 08:42:45;;;;;;;1.67;1.58;;;18.20;97.40;;;;;;5032128;28;20025;-68
2023/07/31 08:45:18;;;;;;;2.35;1.77;;;18.20;97.40;;;;;;5032805;28;20268;-68
2023/07/31 08:47:51;;;;;;;2.15;1.95;;;18.20;97.30;;;;;;5032616;28;20112;-68
2023/07/31 08:50:20;;;;;;;3.10;2.38;;;18.30;97.40;;;;;;5032580;28;20416;-68
2023/07/31 08:52:47;;;;;;;2.33;1.90;;;18.30;97.40;;;;;;5032401;28;20025;-69
2023/07/31 08:55:13;;;;;;;2.10;1.90;;;18.20;97.70;;;;;;5032235;28;20098;-68
2023/07/31 08:57:39;;;;;;;2.30;2.00;;;18.30;97.70;;;;;;5032440;28;20563;-68
2023/07/31 09:00:06;;;;;;;2.38;2.17;;;18.40;97.60;;;;;;5014849;28;20113;-68
2023/07/31 09:02:43;;;;;;;2.60;2.05;;;18.40;97.50;;;;;;5014539;28;20025;-69
2023/07/31 09:05:10;;;;;;;2.72;2.35;;;18.40;97.60;;;;;;5032187;28;20423;-68
2023/07/31 09:07:36;;;;;;;3.95;2.72;;;18.40;97.40;;;;;;5032031;28;20021;-68
2023/07/31 09:10:03;;;;;;;2.35;2.15;;;18.40;97.40;;;;;;5032307;28;20313;-68
2023/07/31 09:12:29;;;;;;;2.67;2.47;;;18.50;97.40;;;;;;5036603;28;20154;-68
2023/07/31 09:14:56;;;;;;;3.22;2.50;;;18.40;97.30;;;;;;5058990;28;20052;-70
2023/07/31 09:17:36;;;;;;;3.53;2.72;;;18.40;97.40;;;;;;5071739;28;20122;-69
2023/07/31 09:20:20;;;;;;;2.72;2.30;;;18.40;97.40;;;;;;5052166;28;20025;-68
2023/07/31 09:22:47;;;;;;;3.08;2.65;;;18.40;97.50;;;;;;5072090;28;20483;-68
2023/07/31 09:25:20;;;;;;;3.33;2.60;;;18.40;97.50;;;;;;5071465;28;20025;-69
2023/07/31 09:27:58;;;;;;;3.22;2.78;;;18.30;97.50;;;;;;5042091;28;20033;-68
2023/07/31 09:30:25;;;;;;;2.80;2.60;;;18.40;97.50;;;;;;5041430;28;20029;-68
2023/07/31 09:32:59;;;;;;;2.85;2.60;;;18.40;97.60;;;;;;5051215;28;20053;-68
2023/07/31 09:35:37;;;;;;;4.15;3.25;;;18.40;97.60;;;;;;5051285;28;20492;-70
2023/07/31 09:38:11;;;;;;;4.43;3.17;;;18.40;97.60;;;;;;5051503;28;20023;-68
2023/07/31 09:40:39;;;;;;;5.60;4.63;;;18.40;97.80;;;;;;5049691;28;20218;-68
2023/07/31 09:43:06;;;;;;;5.50;4.43;;;18.30;97.70;;;;;;5068578;28;20442;-68
2023/07/31 09:45:38;;;;;;;4.07;3.05;;;18.30;97.70;;;;;;5070968;28;20026;-68
2023/07/31 09:48:09;;;;;;;4.80;3.50;;;18.40;97.80;;;;;;5071861;28;20107;-69
2023/07/31 09:50:38;;;;;;;5.20;4.70;;;18.40;97.70;;;;;;5071392;28;20333;-69
2023/07/31 09:53:04;;;;;;;6.68;4.95;;;18.40;97.60;;;;;;5071264;28;20028;-68
2023/07/31 09:55:31;;;;;;;6.22;4.32;;;18.40;97.60;;;;;;5070352;28;20546;-69
2023/07/31 09:57:57;;;;;;;7.28;5.05;;;18.40;97.60;;;;;;5071280;28;20016;-69
2023/07/31 10:00:25;;;;;;;5.28;4.35;;;18.50;97.60;;;;;;5071437;28;20028;-69
2023/07/31 10:02:51;;;;;;;6.28;4.72;;;18.50;97.50;;;;;;5071146;28;20044;-69
2023/07/31 10:05:19;;;;;;;6.85;5.70;;;18.60;97.40;;;;;;5066781;28;20028;-69
2023/07/31 10:07:53;;;;;;;7.57;4.78;;;18.70;97.30;;;;;;5051144;28;20009;-69
2023/07/31 10:10:21;;;;;;;6.72;5.22;;;18.70;97.20;;;;;;5069690;28;20021;-69
2023/07/31 10:12:48;;;;;;;5.90;4.57;;;18.70;97.10;;;;;;5044698;28;20032;-69
2023/07/31 10:15:15;;;;;;;5.85;4.97;;;18.70;97.10;;;;;;5040925;28;20020;-69
2023/07/31 10:17:41;;;;;;;5.40;4.45;;;18.70;97.10;;;;;;5050336;28;20067;-68
2023/07/31 10:20:08;;;;;;;9.77;6.80;;;18.70;97.10;;;;;;5050991;28;20067;-68
2023/07/31 10:22:34;;;;;;;5.38;4.38;;;18.80;97.00;;;;;;5051143;28;20066;-68
2023/07/31 10:25:00;;;;;;;6.68;5.25;;;18.80;97.00;;;;;;5050711;28;20025;-68
2023/07/31 10:27:26;;;;;;;6.20;5.10;;;18.80;96.90;;;;;;5050630;28;20028;-68
2023/07/31 10:29:54;;;;;;;7.28;5.35;;;18.90;96.80;;;;;;5050447;28;20017;-69
2023/07/31 10:32:21;;;;;;;6.70;6.00;;;18.90;96.80;;;;;;5050354;28;20032;-68
2023/07/31 10:34:48;;;;;;;8.00;6.22;;;18.90;96.60;;;;;;5050357;28;20020;-68
2023/07/31 10:37:37;;;;;;;8.38;6.05;;;18.90;96.60;;;;;;5050469;28;20029;-69
2023/07/31 10:40:16;;;;;;;7.80;5.63;;;18.90;96.70;;;;;;5050374;28;20025;-68
2023/07/31 10:42:50;;;;;;;8.80;6.70;;;19.00;96.60;;;;;;5050204;28;20048;-68
2023/07/31 10:45:30;;;;;;;6.20;5.53;;;19.00;96.60;;;;;;5032129;28;20028;-68
2023/07/31 10:48:01;;;;;;;8.18;6.55;;;19.00;96.60;;;;;;5050161;28;20082;-68
2023/07/31 10:50:27;;;;;;;9.32;6.72;;;19.00;96.60;;;;;;5022789;28;20021;-68
2023/07/31 10:53:03;;;;;;;8.98;6.40;;;19.00;96.60;;;;;;5050072;28;20607;-68
2023/07/31 10:55:40;;;;;;;8.80;6.55;;;19.10;96.60;;;;;;5049907;28;20067;-68
2023/07/31 10:58:13;;;;;;;8.80;6.30;;;19.10;96.50;;;;;;5049051;28;20032;-68
2023/07/31 11:00:40;;;;;;;9.10;6.72;;;19.20;96.40;;;;;;5050753;28;20024;-68
2023/07/31 11:03:22;;;;;;;8.07;6.40;;;19.10;96.30;;;;;;5048191;28;20029;-69
2023/07/31 11:06:02;;;;;;;9.65;6.22;;;19.10;96.30;;;;;;5064475;28;20514;-68
2023/07/31 11:08:29;;;;;;;7.72;5.70;;;19.20;96.30;;;;;;5069509;28;20050;-69
2023/07/31 11:11:03;;;;;;;8.50;6.13;;;19.20;96.40;;;;;;5070035;28;20024;-68
2023/07/31 11:13:49;;;;;;;8.65;5.32;;;19.20;96.40;;;;;;5069851;28;20103;-68
2023/07/31 11:16:16;;;;;;;8.27;5.75;;;19.20;96.30;;;;;;5051823;28;20025;-68
2023/07/31 11:18:44;;;;;;;9.15;7.80;;;19.20;96.30;;;;;;5051826;28;20047;-68
2023/07/31 11:21:14;;;;;;;7.28;5.50;;;19.30;96.30;;;;;;5069785;28;20464;-68
2023/07/31 11:23:39;;;;;;;7.53;5.43;;;19.30;96.40;;;;;;5069852;28;20467;-68
2023/07/31 11:26:06;;;;;;;6.55;5.47;;;19.30;96.30;;;;;;5069566;28;20031;-68
2023/07/31 11:28:33;;;;;;;7.28;5.63;;;19.40;96.30;;;;;;5069801;28;20024;-68
2023/07/31 11:31:00;;;;;;;4.90;4.30;;;19.30;96.30;;;;;;5053898;28;20037;-68
2023/07/31 11:33:26;;;;;;;6.13;4.47;;;19.30;96.30;;;;;;5041525;28;20021;-68
2023/07/31 11:35:52;;;;;;;6.55;5.85;;;19.40;96.20;;;;;;5049142;28;20040;-68
2023/07/31 11:38:31;;;;;;;5.55;4.90;;;19.30;96.20;;;;;;5049909;28;20025;-68
2023/07/31 11:41:02;;;;;;;6.25;4.97;;;19.30;96.20;;;;;;5049283;28;20020;-68
2023/07/31 11:43:28;;;;;;;6.57;5.60;;;19.30;96.20;;;;;;5049644;28;20358;-68
2023/07/31 11:45:59;;;;;;;5.88;4.82;;;19.30;96.20;;;;;;5049406;28;20036;-68
2023/07/31 11:48:30;;;;;;;6.03;4.70;;;19.30;96.30;;;;;;5049484;28;20100;-68
2023/07/31 11:51:00;;;;;;;6.18;4.88;;;19.30;96.30;;;;;;5049582;28;20147;-68
2023/07/31 11:53:37;;;;;;;6.88;5.15;;;19.40;96.30;;;;;;5031331;28;20518;-68
2023/07/31 11:56:04;;;;;;;6.65;4.90;;;19.40;96.30;;;;;;5031334;28;20021;-68
2023/07/31 11:58:31;;;;;;;8.68;5.85;;;19.40;96.20;;;;;;5049489;28;20112;-68
2023/07/31 12:00:58;;;;;;;6.95;4.85;;;19.40;96.20;;;;;;5049255;28;20024;-68
2023/07/31 12:03:25;;;;;;;6.90;4.70;;;19.40;96.20;;;;;;5049644;28;20361;-68
2023/07/31 12:05:50;;;;;;;5.85;4.65;;;19.40;96.20;;;;;;5049664;28;20029;-68
2023/07/31 12:08:16;;;;;;;6.07;4.28;;;19.40;96.20;;;;;;5049311;28;20029;-68
2023/07/31 12:10:42;;;;;;;5.40;4.40;;;19.50;96.20;;;;;;5049188;28;20024;-68
2023/07/31 12:13:15;;;;;;;7.32;5.10;;;19.50;96.10;;;;;;5049192;28;20040;-68
2023/07/31 12:15:42;;;;;;;5.93;4.47;;;19.60;96.10;;;;;;5049227;28;20455;-69
2023/07/31 12:18:13;;;;;;;5.65;4.32;;;19.50;96.00;;;;;;5051553;28;20394;-69
2023/07/31 12:20:43;;;;;;;6.60;4.28;;;19.60;96.00;;;;;;5053189;28;20021;-69
2023/07/31 12:23:17;;;;;;;4.63;4.10;;;19.60;95.90;;;;;;5052783;28;20100;-68
2023/07/31 12:25:42;;;;;;;6.72;5.07;;;19.60;95.80;;;;;;5035571;28;20029;-69
2023/07/31 12:28:11;;;;;;;5.00;3.92;;;19.60;95.70;;;;;;5052823;28;20047;-70
2023/07/31 12:30:38;;;;;;;6.00;4.78;;;19.60;95.80;;;;;;5053084;28;20086;-70
2023/07/31 12:33:05;;;;;;;6.03;4.65;;;19.60;95.80;;;;;;5052649;28;20464;-69
2023/07/31 12:35:40;;;;;;;6.95;4.43;;;19.60;95.70;;;;;;5052506;28;20021;-69
2023/07/31 12:38:05;;;;;;;5.88;4.60;;;19.60;95.70;;;;;;5052796;28;20021;-69
2023/07/31 12:40:31;;;;;;;6.85;5.03;;;19.60;95.70;;;;;;5052676;28;20079;-69
2023/07/31 12:42:57;;;;;;;6.72;4.60;;;19.60;95.70;;;;;;5052472;28;20021;-68